Wilmington, North Carolina
Current Conditions -  °F | °C
As of 5:53 PM on Tuesday 25 Nov 2014 (Local Time) from KILM Reporting Station
Overcast Overcast  
Wind Chill: 64°   Ceiling: 8000
Heat Index: 64°   Visibility: 10mi
Dew Point: 62°   Wind: 5mph
Humidity: 93%   Direction: 80°E
Pressure: 30.03"   Gusts: NA
Location:  34.24°N, 77.94°W
Report Text: KILM 252253Z 08004KT 10SM SCT006 OVC080 18/17 A3003 RMK AO2 RAE2158 SLP167 P0000 T01780167
Loading
Personal Weather Stations






























Interactive Weather Map New forecast layout! Learn more

10-Day Weather Forecast

Advertisements
Track Severe Weather on mobile